createdAt,value
2023-04-19T00:02:16.880Z,11.20
2023-04-19T00:04:47.755Z,11.50
2023-04-19T00:07:15.116Z,10.00
2023-04-19T00:09:42.467Z,10.10
2023-04-19T00:12:09.843Z,10.20
2023-04-19T00:14:37.122Z,9.55
2023-04-19T00:17:04.613Z,9.10
2023-04-19T00:19:32.088Z,9.57
2023-04-19T00:21:59.394Z,9.18
2023-04-19T00:24:26.729Z,8.80
2023-04-19T00:26:54.072Z,8.70
2023-04-19T00:29:21.442Z,9.00
2023-04-19T00:31:49.011Z,8.57
2023-04-19T00:34:16.597Z,8.00
2023-04-19T00:36:44.133Z,7.78
2023-04-19T00:39:12.943Z,7.15
2023-04-19T00:41:40.238Z,7.80
2023-04-19T00:44:07.630Z,7.53
2023-04-19T00:46:36.416Z,7.30
2023-04-19T00:49:03.985Z,7.25
2023-04-19T00:51:34.037Z,8.30
2023-04-19T00:54:03.225Z,6.82
2023-04-19T00:56:30.879Z,8.00
2023-04-19T00:58:59.678Z,8.00
2023-04-19T01:01:27.094Z,7.28
2023-04-19T01:03:54.878Z,6.70
2023-04-19T01:06:22.186Z,7.70
2023-04-19T01:08:49.493Z,6.45
2023-04-19T01:11:16.773Z,7.85
2023-04-19T01:13:45.659Z,7.50
2023-04-19T01:16:13.123Z,7.78
2023-04-19T01:18:40.740Z,7.97
2023-04-19T01:21:08.934Z,7.82
2023-04-19T01:23:36.866Z,7.18
2023-04-19T01:26:04.272Z,7.72
2023-04-19T01:28:32.211Z,8.85
2023-04-19T01:30:59.670Z,8.02
2023-04-19T01:33:27.227Z,8.07
2023-04-19T01:35:54.700Z,8.00
2023-04-19T01:38:22.007Z,8.18
2023-04-19T01:40:49.503Z,7.20
2023-04-19T01:43:18.517Z,6.43
2023-04-19T01:45:46.270Z,8.05
2023-04-19T01:48:13.997Z,7.53
2023-04-19T01:50:41.351Z,7.43
2023-04-19T01:53:08.722Z,6.88
2023-04-19T01:55:36.029Z,7.47
2023-04-19T01:58:03.442Z,7.72
2023-04-19T02:00:30.935Z,7.72
2023-04-19T02:02:58.768Z,7.38
2023-04-19T02:05:26.203Z,7.78
2023-04-19T02:07:54.464Z,8.30
2023-04-19T02:10:21.846Z,7.75
2023-04-19T02:12:49.139Z,8.13
2023-04-19T02:15:16.472Z,7.78
2023-04-19T02:17:44.095Z,7.70
2023-04-19T02:20:11.480Z,7.70
2023-04-19T02:22:38.974Z,8.57
2023-04-19T02:25:06.945Z,7.80
2023-04-19T02:27:34.282Z,8.07
2023-04-19T02:30:02.048Z,8.27
2023-04-19T02:32:31.972Z,7.32
2023-04-19T02:34:59.380Z,8.43
2023-04-19T02:37:26.688Z,8.68
2023-04-19T02:39:57.696Z,7.88
2023-04-19T02:42:24.991Z,8.32
2023-04-19T02:44:54.416Z,7.57
2023-04-19T02:47:25.059Z,7.95
2023-04-19T02:49:52.705Z,7.93
2023-04-19T02:52:20.583Z,8.50
2023-04-19T02:54:48.204Z,8.60
2023-04-19T02:57:15.711Z,8.50
2023-04-19T02:59:44.080Z,8.43
2023-04-19T03:02:11.376Z,8.73
2023-04-19T03:04:38.701Z,9.13
2023-04-19T03:07:08.369Z,8.57
2023-04-19T03:09:36.342Z,9.18
2023-04-19T03:12:05.276Z,9.18
2023-04-19T03:14:34.042Z,9.48
2023-04-19T03:17:01.516Z,10.25
2023-04-19T03:19:29.151Z,10.38
2023-04-19T03:21:56.546Z,10.45
2023-04-19T03:24:30.760Z,11.10
2023-04-19T03:27:02.590Z,10.70
2023-04-19T03:29:31.283Z,11.70
2023-04-19T03:32:05.561Z,11.57
2023-04-19T03:34:32.928Z,11.40
2023-04-19T03:37:00.423Z,12.40
2023-04-19T03:39:28.227Z,12.25
2023-04-19T03:42:01.544Z,12.02
2023-04-19T03:45:01.161Z,12.05
2023-04-19T03:47:31.011Z,11.75
2023-04-19T03:49:59.154Z,12.32
2023-04-19T03:52:27.707Z,12.85
2023-04-19T03:54:55.128Z,12.00
2023-04-19T03:57:40.914Z,12.35
2023-04-19T04:00:20.292Z,12.65
2023-04-19T04:02:54.599Z,12.57
2023-04-19T04:05:22.950Z,12.65
2023-04-19T04:07:50.499Z,13.18
2023-04-19T04:10:18.988Z,13.60
2023-04-19T04:12:46.906Z,11.57
2023-04-19T04:15:24.142Z,12.00
2023-04-19T04:17:54.014Z,11.30
2023-04-19T04:20:21.825Z,11.70
2023-04-19T04:22:51.429Z,10.30
2023-04-19T04:25:23.040Z,10.40
2023-04-19T04:27:54.467Z,9.68
2023-04-19T04:30:25.883Z,10.18
2023-04-19T04:32:58.085Z,9.02
2023-04-19T04:35:26.168Z,8.77
2023-04-19T04:37:59.859Z,9.02
2023-04-19T04:40:27.783Z,8.80
2023-04-19T04:42:55.261Z,9.40
2023-04-19T04:46:01.028Z,8.60
2023-04-19T04:48:34.080Z,7.32
2023-04-19T04:51:01.636Z,6.70
2023-04-19T04:53:29.977Z,6.22
2023-04-19T04:55:58.029Z,6.10
2023-04-19T04:58:25.435Z,5.90
2023-04-19T05:01:01.177Z,6.55
2023-04-19T05:03:29.496Z,7.53
2023-04-19T05:05:59.571Z,6.50
2023-04-19T05:08:27.832Z,6.38
2023-04-19T05:11:00.164Z,7.75
2023-04-19T05:13:31.587Z,6.97
2023-04-19T05:16:00.305Z,6.32
2023-04-19T05:18:27.904Z,5.75
2023-04-19T05:20:56.824Z,5.18
2023-04-19T05:23:27.895Z,5.15
2023-04-19T05:25:55.310Z,4.93
2023-04-19T05:28:24.817Z,4.75
2023-04-19T05:31:08.099Z,3.97
2023-04-19T05:33:44.630Z,3.58
2023-04-19T05:36:13.160Z,3.45
2023-04-19T05:38:40.481Z,3.25
2023-04-19T05:41:08.015Z,3.17
2023-04-19T05:43:35.433Z,3.55
2023-04-19T05:46:03.701Z,3.58
2023-04-19T05:48:31.039Z,3.35
2023-04-19T05:51:25.100Z,3.38
2023-04-19T05:54:01.471Z,3.22
2023-04-19T05:56:29.694Z,3.45
2023-04-19T05:58:57.090Z,2.70
2023-04-19T06:01:24.786Z,3.10
2023-04-19T06:03:54.419Z,2.60
2023-04-19T06:06:25.625Z,2.80
2023-04-19T06:08:54.851Z,2.58
2023-04-19T06:11:26.888Z,2.40
2023-04-19T06:13:56.623Z,2.50
2023-04-19T06:16:24.310Z,4.20
2023-04-19T06:18:51.858Z,3.03
2023-04-19T06:21:19.113Z,2.45
2023-04-19T06:23:46.576Z,3.65
2023-04-19T06:26:14.084Z,1.90
2023-04-19T06:28:41.372Z,3.15
2023-04-19T06:31:08.702Z,2.45
2023-04-19T06:33:36.250Z,2.40
2023-04-19T06:36:04.180Z,2.60
2023-04-19T06:38:31.794Z,2.78
2023-04-19T06:40:59.861Z,2.42
2023-04-19T06:43:27.731Z,2.35
2023-04-19T06:46:04.957Z,3.10
2023-04-19T06:48:57.891Z,2.08
2023-04-19T06:51:40.473Z,2.10
2023-04-19T06:54:08.345Z,2.67
2023-04-19T06:56:45.980Z,2.05
2023-04-19T07:02:42.098Z,2.33
2023-04-19T07:07:14.127Z,3.20
2023-04-19T07:08:24.992Z,2.40
2023-04-19T07:10:54.045Z,2.58
2023-04-19T07:13:21.467Z,3.00
2023-04-19T07:15:48.800Z,3.47
2023-04-19T07:18:16.215Z,2.95
2023-04-19T07:20:46.623Z,2.42
2023-04-19T07:23:14.157Z,3.00
2023-04-19T07:25:41.454Z,2.47
2023-04-19T07:28:08.942Z,2.50
2023-04-19T07:30:36.812Z,2.60
2023-04-19T07:33:05.376Z,2.38
2023-04-19T07:35:32.799Z,2.33
2023-04-19T07:38:00.114Z,2.33
2023-04-19T07:40:27.486Z,2.17
2023-04-19T07:42:56.570Z,2.33
2023-04-19T07:45:24.426Z,2.20
2023-04-19T07:47:51.714Z,2.10
2023-04-19T07:50:19.731Z,2.08
2023-04-19T07:52:48.161Z,2.70
2023-04-19T07:55:15.505Z,2.15
2023-04-19T07:57:46.132Z,2.78
2023-04-19T08:00:21.855Z,2.30
2023-04-19T08:02:50.067Z,2.35
2023-04-19T08:05:31.487Z,2.63
2023-04-19T08:07:59.307Z,2.30
2023-04-19T08:10:33.914Z,2.80
2023-04-19T08:13:05.684Z,2.25
2023-04-19T08:18:07.846Z,2.22
2023-04-19T08:20:36.664Z,2.33
2023-04-19T08:23:18.033Z,2.67
2023-04-19T08:25:49.032Z,2.35
2023-04-19T08:28:17.059Z,2.50
2023-04-19T08:30:44.764Z,2.47
2023-04-19T08:33:12.562Z,2.60
2023-04-19T08:35:45.784Z,2.83
2023-04-19T08:38:13.262Z,2.70
2023-04-19T08:40:50.435Z,2.50
2023-04-19T08:43:19.211Z,2.80
2023-04-19T08:45:51.225Z,2.63
2023-04-19T08:48:19.078Z,2.65
2023-04-19T08:51:00.726Z,2.55
2023-04-19T08:53:34.314Z,2.97
2023-04-19T09:01:12.803Z,2.35
2023-04-19T09:03:59.448Z,2.83
2023-04-19T09:06:35.319Z,2.67
2023-04-19T09:11:52.953Z,2.90
2023-04-19T09:14:22.003Z,3.00
2023-04-19T09:16:52.014Z,2.83
2023-04-19T09:19:24.918Z,2.58
2023-04-19T09:21:54.750Z,3.10
2023-04-19T09:27:12.354Z,2.80
2023-04-19T09:29:40.036Z,3.55
2023-04-19T09:32:07.752Z,2.53
2023-04-19T09:34:35.113Z,2.90
2023-04-19T09:37:22.846Z,3.00
2023-04-19T09:40:21.157Z,3.22
2023-04-19T09:45:29.648Z,3.08
2023-04-19T09:48:03.868Z,3.35
2023-04-19T09:50:32.214Z,2.55
2023-04-19T09:53:01.811Z,3.17
2023-04-19T09:55:35.904Z,2.65
2023-04-19T09:58:12.442Z,2.60
2023-04-19T10:00:47.844Z,2.50
2023-04-19T10:03:18.719Z,3.20
2023-04-19T10:05:46.538Z,2.63
2023-04-19T10:08:14.966Z,2.75
2023-04-19T10:10:45.577Z,2.78
2023-04-19T10:15:51.057Z,2.50
2023-04-19T10:18:21.510Z,2.70
2023-04-19T10:21:06.614Z,3.38
2023-04-19T10:23:54.319Z,2.78
2023-04-19T10:26:22.863Z,2.70
2023-04-19T10:28:50.607Z,2.65
2023-04-19T10:31:23.650Z,2.90
2023-04-19T10:33:51.706Z,2.45
2023-04-19T10:36:38.523Z,2.70
2023-04-19T10:39:42.997Z,2.50
2023-04-19T10:42:12.694Z,2.70
2023-04-19T10:44:40.039Z,2.90
2023-04-19T10:47:07.846Z,2.60
2023-04-19T10:49:47.409Z,2.60
2023-04-19T10:52:29.576Z,2.20
2023-04-19T10:54:57.414Z,2.75
2023-04-19T10:57:25.341Z,2.58
2023-04-19T11:00:18.337Z,2.60
2023-04-19T11:02:45.923Z,2.85
2023-04-19T11:05:14.450Z,2.50
2023-04-19T11:07:42.161Z,2.53
2023-04-19T11:10:11.554Z,2.30
2023-04-19T11:12:43.632Z,2.58
2023-04-19T11:15:24.099Z,2.53
2023-04-19T11:18:08.992Z,2.63
2023-04-19T11:20:42.566Z,2.50
2023-04-19T11:23:17.965Z,2.38
2023-04-19T11:25:46.301Z,1.90
2023-04-19T11:28:17.568Z,2.22
2023-04-19T11:30:46.307Z,1.98
2023-04-19T11:33:13.777Z,2.40
2023-04-19T11:35:43.558Z,2.65
2023-04-19T11:38:17.559Z,2.72
2023-04-19T11:40:45.219Z,2.30
2023-04-19T11:43:12.732Z,2.35
2023-04-19T11:45:40.476Z,2.70
2023-04-19T11:48:17.537Z,2.40
2023-04-19T11:50:45.743Z,2.60
2023-04-19T11:53:17.374Z,2.90
2023-04-19T11:55:46.312Z,2.47
2023-04-19T11:58:31.076Z,2.33
2023-04-19T12:01:19.666Z,2.53
2023-04-19T12:03:50.341Z,2.10
2023-04-19T12:06:34.250Z,2.30
2023-04-19T12:09:07.736Z,2.30
2023-04-19T12:12:40.429Z,2.42
2023-04-19T12:17:29.527Z,2.38
2023-04-19T12:19:56.966Z,2.30
2023-04-19T12:22:24.417Z,2.30
2023-04-19T12:24:53.503Z,2.05
2023-04-19T12:27:20.951Z,2.95
2023-04-19T12:29:48.366Z,2.67
2023-04-19T12:32:16.031Z,3.00
2023-04-19T12:34:43.609Z,4.07
2023-04-19T12:37:11.047Z,2.55
2023-04-19T12:39:38.351Z,3.20
2023-04-19T12:42:06.338Z,2.72
2023-04-19T12:44:33.645Z,2.40
2023-04-19T12:47:00.983Z,2.13
2023-04-19T12:49:28.911Z,2.65
2023-04-19T12:51:57.594Z,2.50
2023-04-19T12:54:25.171Z,2.40
2023-04-19T12:56:53.101Z,2.97
2023-04-19T12:59:22.047Z,2.63
2023-04-19T13:02:00.774Z,2.80
2023-04-19T13:04:28.315Z,2.85
2023-04-19T13:06:55.755Z,2.70
2023-04-19T13:09:25.991Z,2.80
2023-04-19T13:11:54.664Z,2.70
2023-04-19T13:14:22.176Z,2.75
2023-04-19T13:16:49.772Z,3.10
2023-04-19T13:19:17.098Z,2.88
2023-04-19T13:21:45.177Z,3.28
2023-04-19T13:24:12.814Z,2.90
2023-04-19T13:26:41.516Z,3.10
2023-04-19T13:29:08.927Z,2.85
2023-04-19T13:31:36.315Z,2.67
2023-04-19T13:34:03.773Z,2.90
2023-04-19T13:36:31.350Z,3.30
2023-04-19T13:38:59.830Z,2.40
2023-04-19T13:41:27.158Z,3.05
2023-04-19T13:43:54.494Z,3.78
2023-04-19T13:46:21.872Z,4.80
2023-04-19T13:49:19.976Z,4.43
2023-04-19T13:52:17.603Z,4.18
2023-04-19T13:54:45.352Z,4.55
2023-04-19T13:57:12.709Z,3.97
2023-04-19T13:59:40.352Z,3.95
2023-04-19T14:02:07.839Z,3.80
2023-04-19T14:04:35.372Z,3.60
2023-04-19T14:07:02.735Z,3.45
2023-04-19T14:09:32.934Z,3.63
2023-04-19T14:12:02.546Z,2.85
2023-04-19T14:14:31.986Z,3.50
2023-04-19T14:16:59.937Z,3.55
2023-04-19T14:19:27.261Z,3.15
2023-04-19T14:21:55.447Z,3.58
2023-04-19T14:24:22.790Z,3.80
2023-04-19T14:27:03.190Z,3.78
2023-04-19T14:29:49.294Z,3.97
2023-04-19T14:32:25.936Z,4.05
2023-04-19T14:34:55.228Z,3.58
2023-04-19T14:37:24.256Z,4.35
2023-04-19T14:39:51.795Z,4.35
2023-04-19T14:46:30.441Z,4.47
2023-04-19T14:49:03.305Z,4.60
2023-04-19T14:51:31.647Z,3.67
2023-04-19T14:54:02.012Z,2.78
2023-04-19T14:56:29.364Z,2.60
2023-04-19T14:58:56.777Z,3.20
2023-04-19T15:01:24.321Z,3.22
2023-04-19T15:03:51.987Z,2.92
2023-04-19T15:06:19.573Z,2.92
2023-04-19T15:08:47.008Z,3.00
2023-04-19T15:11:14.362Z,3.40
2023-04-19T15:13:41.675Z,3.65
2023-04-19T15:16:09.467Z,3.17
2023-04-19T15:18:37.020Z,4.10
2023-04-19T15:21:05.150Z,3.28
2023-04-19T15:23:32.484Z,4.15
2023-04-19T15:25:59.794Z,3.88
2023-04-19T15:28:27.177Z,3.28
2023-04-19T15:31:02.512Z,3.00
2023-04-19T15:33:30.127Z,3.88
2023-04-19T15:35:58.332Z,3.70
2023-04-19T15:38:28.405Z,3.47
2023-04-19T15:40:57.885Z,4.20
2023-04-19T15:46:14.571Z,4.40
2023-04-19T15:48:43.956Z,3.90
2023-04-19T15:51:17.040Z,4.07
2023-04-19T15:53:45.131Z,5.30
2023-04-19T15:56:12.488Z,4.13
2023-04-19T15:58:39.932Z,3.90
2023-04-19T16:01:13.614Z,3.55
2023-04-19T16:03:41.811Z,5.07
2023-04-19T16:06:09.733Z,3.75
2023-04-19T16:08:37.175Z,4.43
2023-04-19T16:11:06.898Z,4.45
2023-04-19T16:13:35.141Z,4.50
2023-04-19T16:16:02.405Z,3.80
2023-04-19T16:18:29.749Z,4.22
2023-04-19T16:20:57.023Z,3.90
2023-04-19T16:23:25.084Z,3.78
2023-04-19T16:25:53.411Z,3.72
2023-04-19T16:28:22.158Z,4.50
2023-04-19T16:30:49.611Z,4.35
2023-04-19T16:33:16.969Z,3.75
2023-04-19T16:35:44.725Z,4.10
2023-04-19T16:38:12.022Z,4.30
2023-04-19T16:40:39.324Z,4.28
2023-04-19T16:43:06.726Z,4.68
2023-04-19T16:45:34.300Z,4.20
2023-04-19T16:48:01.889Z,4.53
2023-04-19T16:50:29.412Z,4.07
2023-04-19T16:52:56.700Z,4.15
2023-04-19T16:55:24.027Z,3.85
2023-04-19T16:57:53.604Z,4.05
2023-04-19T17:00:21.894Z,4.65
2023-04-19T17:02:49.338Z,4.88
2023-04-19T17:05:16.842Z,4.60
2023-04-19T17:07:44.667Z,4.65
2023-04-19T17:10:12.750Z,4.90
2023-04-19T17:12:41.052Z,5.07
2023-04-19T17:15:08.695Z,4.63
2023-04-19T17:17:37.133Z,5.03
2023-04-19T17:20:06.126Z,5.25
2023-04-19T17:22:33.508Z,4.38
2023-04-19T17:25:02.282Z,5.40
2023-04-19T17:27:29.675Z,4.70
2023-04-19T17:29:56.997Z,4.57
2023-04-19T17:32:24.249Z,5.68
2023-04-19T17:34:51.592Z,5.20
2023-04-19T17:37:18.930Z,5.10
2023-04-19T17:39:46.336Z,5.60
2023-04-19T17:42:13.625Z,5.13
2023-04-19T17:44:41.028Z,5.45
2023-04-19T17:47:08.356Z,5.30
2023-04-19T17:49:35.753Z,5.68
2023-04-19T17:52:03.093Z,5.32
2023-04-19T17:54:30.498Z,6.00
2023-04-19T17:56:59.398Z,5.63
2023-04-19T17:59:26.741Z,5.53
2023-04-19T18:01:54.229Z,5.53
2023-04-19T18:04:21.872Z,5.15
2023-04-19T18:06:49.425Z,4.72
2023-04-19T18:09:20.187Z,5.30
2023-04-19T18:11:47.966Z,5.07
2023-04-19T18:14:15.431Z,6.05
2023-04-19T18:16:42.800Z,5.30
2023-04-19T18:19:10.207Z,4.35
2023-04-19T18:21:37.690Z,5.43
2023-04-19T18:24:05.694Z,4.80
2023-04-19T18:26:40.928Z,5.50
2023-04-19T18:31:38.979Z,4.38
2023-04-19T18:34:06.304Z,4.70
2023-04-19T18:36:33.816Z,4.40
2023-04-19T18:39:01.066Z,4.85
2023-04-19T18:41:28.366Z,5.50
2023-04-19T18:44:24.872Z,5.05
2023-04-19T18:46:43.117Z,4.20
2023-04-19T18:49:10.458Z,5.22
2023-04-19T18:51:38.365Z,4.70
2023-04-19T18:54:05.812Z,4.55
2023-04-19T18:57:10.892Z,4.03
2023-04-19T18:59:20.686Z,4.63
2023-04-19T19:01:51.467Z,4.13
2023-04-19T19:04:42.637Z,3.90
2023-04-19T19:07:23.054Z,4.68
2023-04-19T19:10:01.624Z,4.65
2023-04-19T19:12:39.819Z,4.57
2023-04-19T19:15:11.799Z,4.78
2023-04-19T19:17:42.784Z,4.97
2023-04-19T19:20:11.188Z,4.88
2023-04-19T19:22:39.940Z,5.35
2023-04-19T19:25:12.337Z,4.18
2023-04-19T19:27:40.302Z,5.07
2023-04-19T19:30:08.595Z,4.30
2023-04-19T19:32:36.514Z,5.10
2023-04-19T19:35:08.248Z,5.50
2023-04-19T19:37:40.441Z,4.72
2023-04-19T19:40:11.414Z,4.70
2023-04-19T19:42:39.608Z,3.95
2023-04-19T19:45:08.613Z,4.70
2023-04-19T19:47:43.147Z,5.00
2023-04-19T19:51:01.050Z,4.93
2023-04-19T19:53:03.238Z,4.97
2023-04-19T19:55:31.107Z,5.18
2023-04-19T20:00:44.972Z,4.95
2023-04-19T20:03:14.262Z,5.47
2023-04-19T20:05:49.640Z,4.68
2023-04-19T20:08:17.285Z,4.88
2023-04-19T20:10:44.765Z,5.10
2023-04-19T20:13:13.403Z,4.57
2023-04-19T20:15:41.601Z,5.13
2023-04-19T20:18:10.312Z,4.68
2023-04-19T20:20:38.019Z,4.22
2023-04-19T20:23:05.921Z,4.28
2023-04-19T20:25:33.433Z,4.40
2023-04-19T20:28:01.964Z,4.78
2023-04-19T20:30:29.306Z,4.47
2023-04-19T20:32:56.928Z,4.95
2023-04-19T20:35:24.523Z,5.80
2023-04-19T20:37:51.936Z,4.78
2023-04-19T20:40:19.400Z,5.55
2023-04-19T20:42:46.963Z,5.18
2023-04-19T20:45:14.499Z,4.93
2023-04-19T20:47:42.729Z,6.32
2023-04-19T20:50:11.093Z,5.13
2023-04-19T20:52:38.844Z,5.78
2023-04-19T20:55:07.076Z,5.72
2023-04-19T20:57:34.571Z,5.50
2023-04-19T21:00:01.908Z,5.60
2023-04-19T21:02:29.399Z,5.15
2023-04-19T21:04:56.819Z,5.93
2023-04-19T21:07:24.159Z,5.13
2023-04-19T21:13:23.149Z,4.38
2023-04-19T21:15:50.939Z,4.30
2023-04-19T21:18:18.229Z,4.45
2023-04-19T21:20:45.607Z,4.60
2023-04-19T21:23:12.940Z,4.80
2023-04-19T21:25:40.309Z,5.30
2023-04-19T21:28:08.220Z,4.70
2023-04-19T21:30:40.685Z,4.78
2023-04-19T21:33:08.189Z,4.70
2023-04-19T21:35:35.771Z,4.60
2023-04-19T21:38:03.257Z,5.65
2023-04-19T21:40:30.677Z,5.70
2023-04-19T21:42:57.969Z,5.03
2023-04-19T21:45:25.361Z,5.13
2023-04-19T21:47:52.701Z,4.95
2023-04-19T21:50:20.198Z,4.03
2023-04-19T21:52:47.435Z,5.25
2023-04-19T21:55:14.757Z,4.90
2023-04-19T21:57:42.037Z,4.45
2023-04-19T22:00:10.105Z,4.53
2023-04-19T22:02:37.505Z,4.32
2023-04-19T22:05:07.248Z,4.70
2023-04-19T22:07:38.040Z,4.55
2023-04-19T22:10:06.538Z,4.45
2023-04-19T22:12:34.119Z,5.00
2023-04-19T22:15:02.311Z,4.60
2023-04-19T22:17:30.301Z,4.50
2023-04-19T22:19:59.010Z,4.20
2023-04-19T22:22:26.539Z,4.60
2023-04-19T22:24:58.065Z,4.95
2023-04-19T22:27:25.836Z,4.93
2023-04-19T22:29:53.461Z,3.92
2023-04-19T22:32:20.724Z,4.93
2023-04-19T22:34:48.063Z,5.53
2023-04-19T22:37:15.481Z,4.70
2023-04-19T22:39:42.814Z,4.88
2023-04-19T22:42:10.195Z,4.45
2023-04-19T22:44:37.490Z,4.93
2023-04-19T22:47:04.926Z,5.18
2023-04-19T22:49:32.950Z,4.80
2023-04-19T22:52:00.302Z,4.45
2023-04-19T22:54:27.605Z,4.93
2023-04-19T22:56:54.952Z,4.63
2023-04-19T22:59:22.230Z,3.58
2023-04-19T23:01:49.584Z,4.18
2023-04-19T23:04:17.386Z,3.72
2023-04-19T23:06:45.322Z,3.70
2023-04-19T23:09:13.922Z,3.72
2023-04-19T23:11:41.486Z,3.40
2023-04-19T23:14:10.369Z,3.50
2023-04-19T23:16:41.236Z,4.45
2023-04-19T23:19:09.521Z,4.13
2023-04-19T23:21:37.260Z,3.72
2023-04-19T23:24:04.884Z,3.55
2023-04-19T23:26:32.153Z,3.60
2023-04-19T23:28:59.787Z,3.55
2023-04-19T23:31:27.170Z,3.33
2023-04-19T23:33:54.472Z,3.60
2023-04-19T23:36:21.722Z,3.83
2023-04-19T23:38:49.000Z,4.47
2023-04-19T23:41:16.301Z,4.60
2023-04-19T23:43:46.269Z,4.47
2023-04-19T23:46:13.639Z,4.30
2023-04-19T23:48:41.153Z,3.97
2023-04-19T23:51:08.475Z,4.05
2023-04-19T23:53:35.974Z,3.88
2023-04-19T23:56:03.337Z,4.40
2023-04-19T23:58:30.848Z,4.10
